createdAt,value
2022-08-12T00:00:12.291Z,56.27
2022-08-12T00:04:15.095Z,56.44
2022-08-12T00:06:16.983Z,56.29
2022-08-12T00:08:28.763Z,55.91
2022-08-12T00:10:19.382Z,55.89
2022-08-12T00:12:20.582Z,56.69
2022-08-12T00:14:22.209Z,57.27
2022-08-12T00:16:33.030Z,58.34
2022-08-12T00:18:25.521Z,58.43
2022-08-12T00:19:09.315Z,58.31
2022-08-12T00:21:10.690Z,58.06
2022-08-12T00:25:13.803Z,58.2
2022-08-12T00:27:15.074Z,58.74
2022-08-12T00:29:16.377Z,58.57
2022-08-12T00:31:17.775Z,58.97
2022-08-12T00:33:19.265Z,59.48
2022-08-12T00:35:20.564Z,59.57
2022-08-12T00:37:22.132Z,59.7
2022-08-12T00:39:23.619Z,59.98
2022-08-12T00:41:24.970Z,60.52
2022-08-12T00:43:26.542Z,60.82
2022-08-12T00:45:27.576Z,61.24
2022-08-12T00:47:29.105Z,61.11
2022-08-12T00:49:30.175Z,60.56
2022-08-12T00:51:31.328Z,60.66
2022-08-12T00:53:33.193Z,60.76
2022-08-12T00:55:34.596Z,61.02
2022-08-12T00:57:35.781Z,61
2022-08-12T00:59:36.755Z,61.4
2022-08-12T01:02:00.786Z,61.55
2022-08-12T01:03:39.003Z,61.83
2022-08-12T01:07:41.582Z,62.02
2022-08-12T01:09:42.678Z,62.3
2022-08-12T01:13:45.678Z,63.21
2022-08-12T01:15:47.297Z,63.16
2022-08-12T01:17:48.382Z,61.98
2022-08-12T01:19:49.746Z,61.39
2022-08-12T01:23:52.283Z,60.83
2022-08-12T01:25:55.875Z,61.39
2022-08-12T01:27:55.644Z,61.78
2022-08-12T01:29:56.681Z,62.13
2022-08-12T01:31:58.326Z,62.76
2022-08-12T01:33:59.616Z,63.4
2022-08-12T01:36:08.065Z,63.2
2022-08-12T01:38:02.975Z,62.78
2022-08-12T01:40:30.916Z,62.55
2022-08-12T01:42:05.587Z,62.29
2022-08-12T01:44:06.774Z,62.61
2022-08-12T01:46:08.479Z,63.04
2022-08-12T01:48:09.770Z,63.47
2022-08-12T01:50:11.260Z,63.77
2022-08-12T01:52:14.979Z,63.63
2022-08-12T01:54:13.577Z,63.72
2022-08-12T01:56:14.641Z,63.73
2022-08-12T01:58:15.600Z,63.48
2022-08-12T02:00:16.596Z,64.01
2022-08-12T02:02:17.570Z,64.28
2022-08-12T02:04:19.483Z,64.32
2022-08-12T02:06:20.983Z,64.35
2022-08-12T02:08:22.283Z,63.99
2022-08-12T02:12:24.804Z,64
2022-08-12T02:14:26.440Z,64.31
2022-08-12T02:16:28.333Z,64.32
2022-08-12T02:18:29.896Z,64.57
2022-08-12T02:20:34.246Z,64.65
2022-08-12T02:22:32.638Z,64.72
2022-08-12T02:24:34.159Z,64.76
2022-08-12T02:26:35.840Z,64.89
2022-08-12T02:28:37.782Z,65.31
2022-08-12T02:30:42.165Z,66.04
2022-08-12T02:32:41.031Z,66.56
2022-08-12T02:34:42.651Z,67.5
2022-08-12T02:36:44.265Z,67.93
2022-08-12T02:38:45.744Z,67.46
2022-08-12T02:40:47.146Z,67.33
2022-08-12T02:42:48.643Z,68.21
2022-08-12T02:44:50.442Z,69.55
2022-08-12T02:48:53.213Z,69.8
2022-08-12T02:50:55.043Z,69.6
2022-08-12T02:52:56.597Z,69.94
2022-08-12T02:54:58.200Z,70.81
2022-08-12T02:57:00.050Z,71.37
2022-08-12T02:59:01.339Z,70.31
2022-08-12T03:01:03.150Z,70
2022-08-12T03:03:04.123Z,69.98
2022-08-12T03:05:05.493Z,69.72
2022-08-12T03:07:06.686Z,69.22
2022-08-12T03:11:12.231Z,69.46
2022-08-12T03:13:11.278Z,69.43
2022-08-12T03:15:12.205Z,69.84
2022-08-12T03:17:13.724Z,70.48
2022-08-12T03:19:14.964Z,71.02
2022-08-12T03:21:15.919Z,71.55
2022-08-12T03:23:17.438Z,72.28
2022-08-12T03:25:18.098Z,72.64
2022-08-12T03:27:19.924Z,73.51
2022-08-12T03:29:20.915Z,73.6
2022-08-12T03:31:21.867Z,74.19
2022-08-12T03:33:23.365Z,73.65
2022-08-12T03:37:25.603Z,73.29
2022-08-12T03:39:35.771Z,73.21
2022-08-12T03:41:28.511Z,73.3
2022-08-12T03:43:30.161Z,74.32
2022-08-12T03:45:31.448Z,75.51
2022-08-12T03:47:33.127Z,75.75
2022-08-12T03:49:34.681Z,75.84
2022-08-12T03:51:35.910Z,76.08
2022-08-12T03:53:37.308Z,75.66
2022-08-12T03:55:38.618Z,75.61
2022-08-12T03:57:40.406Z,75.7
2022-08-12T03:59:41.371Z,75.83
2022-08-12T04:01:42.799Z,77
2022-08-12T04:03:44.347Z,77.65
2022-08-12T04:05:54.860Z,77.74
2022-08-12T04:07:51.219Z,77.42
2022-08-12T04:09:49.398Z,77.05
2022-08-12T04:11:50.407Z,76.49
2022-08-12T04:13:51.787Z,75.93
2022-08-12T04:15:53.256Z,75.9
2022-08-12T04:19:55.941Z,75.72
2022-08-12T04:22:02.563Z,75.94
2022-08-12T04:26:00.620Z,77.18
2022-08-12T04:28:09.632Z,77.53
2022-08-12T04:30:17.405Z,78.15
2022-08-12T04:32:05.091Z,78.28
2022-08-12T04:34:06.358Z,77.52
2022-08-12T04:36:07.818Z,77.03
2022-08-12T04:38:09.389Z,77.43
2022-08-12T04:40:10.666Z,77.54
2022-08-12T04:42:12.106Z,77.51
2022-08-12T04:44:13.761Z,77.39
2022-08-12T04:46:16.713Z,77.4
2022-08-12T04:48:15.909Z,77.51
2022-08-12T04:50:27.044Z,77.45
2022-08-12T04:52:18.856Z,76.3
2022-08-12T04:54:20.803Z,74.89
2022-08-12T04:56:21.913Z,74.54
2022-08-12T04:58:29.217Z,73.95
2022-08-12T05:00:24.401Z,71.21
2022-08-12T05:02:26.283Z,69.84
2022-08-12T05:06:29.028Z,71.97
2022-08-12T05:08:30.617Z,71.84
2022-08-12T05:10:33.285Z,72.38
2022-08-12T05:12:32.989Z,72.31
2022-08-12T05:14:37.579Z,71.89
2022-08-12T05:18:38.414Z,71.53
2022-08-12T05:20:38.745Z,71.28
2022-08-12T05:22:40.167Z,71.53
2022-08-12T05:24:41.579Z,71.08
2022-08-12T05:26:42.856Z,71.12
2022-08-12T05:28:44.421Z,69.73
2022-08-12T05:30:45.970Z,69.65
2022-08-12T05:32:47.419Z,69.85
2022-08-12T05:34:48.949Z,69.41
2022-08-12T05:36:50.366Z,67.98
2022-08-12T05:38:51.942Z,66.72
2022-08-12T05:40:53.392Z,66.84
2022-08-12T05:42:55.143Z,67.2
2022-08-12T05:44:56.921Z,66.89
2022-08-12T05:46:58.344Z,66.03
2022-08-12T05:48:59.470Z,64.32
2022-08-12T05:51:00.631Z,63.64
2022-08-12T05:53:01.725Z,63.2
2022-08-12T05:55:03.456Z,64.16
2022-08-12T05:57:04.342Z,62.5
2022-08-12T06:02:11.181Z,59.53
2022-08-12T06:03:07.759Z,60.25
2022-08-12T06:05:09.257Z,58.54
2022-08-12T06:07:37.219Z,57.16
2022-08-12T06:09:11.641Z,56.39
2022-08-12T06:11:13.017Z,56.28
2022-08-12T06:13:14.050Z,55.01
2022-08-12T06:15:15.726Z,56.19
2022-08-12T06:17:16.735Z,54.73
2022-08-12T06:21:19.328Z,52.39
2022-08-12T06:23:20.555Z,52.09
2022-08-12T06:25:22.260Z,52.18
2022-08-12T06:27:23.366Z,54.74
2022-08-12T06:30:07.633Z,54.82
2022-08-12T06:31:26.776Z,55.74
2022-08-12T06:33:55.157Z,57.14
2022-08-12T06:35:49.015Z,54.89
2022-08-12T06:37:29.588Z,55.44
2022-08-12T06:39:30.638Z,56.15
2022-08-12T06:41:32.350Z,53.68
2022-08-12T06:44:04.360Z,53.36
2022-08-12T06:45:45.186Z,53.31
2022-08-12T06:49:36.761Z,53.52
2022-08-12T06:51:38.413Z,53.28
2022-08-12T06:53:39.455Z,53.13
2022-08-12T06:55:56.597Z,52.28
2022-08-12T06:59:42.917Z,51.34
2022-08-12T07:01:49.997Z,51.02
2022-08-12T07:03:45.693Z,51.42
2022-08-12T07:04:37.154Z,51.27
2022-08-12T07:06:30.490Z,50.67
2022-08-12T07:08:32.052Z,50.53
2022-08-12T07:10:33.245Z,50.17
2022-08-12T07:12:34.193Z,49.12
2022-08-12T07:14:38.748Z,48.5
2022-08-12T07:16:36.399Z,46.92
2022-08-12T07:18:37.320Z,45.92
2022-08-12T07:20:52.054Z,46.22
2022-08-12T07:22:40.276Z,43.48
2022-08-12T07:26:43.766Z,42.32
2022-08-12T07:28:43.532Z,41.46
2022-08-12T07:30:44.596Z,41.39
2022-08-12T07:32:45.877Z,41.86
2022-08-12T07:36:48.343Z,41.2
2022-08-12T07:38:49.414Z,41.32
2022-08-12T07:40:51.013Z,40.46
2022-08-12T07:42:51.929Z,40.99
2022-08-12T07:44:53.112Z,40.23
2022-08-12T07:46:54.428Z,40.64
2022-08-12T07:48:55.840Z,40.43
2022-08-12T07:50:56.990Z,40.23
2022-08-12T07:52:58.746Z,40.41
2022-08-12T07:55:00.217Z,39.37
2022-08-12T07:57:01.999Z,39.9
2022-08-12T07:59:03.255Z,40.18
2022-08-12T08:01:04.001Z,40.51
2022-08-12T08:03:04.991Z,39.63
2022-08-12T08:05:06.784Z,38.51
2022-08-12T08:07:07.867Z,39.21
2022-08-12T08:09:09.016Z,38.87
2022-08-12T08:11:10.789Z,38.61
2022-08-12T08:13:11.995Z,38.45
2022-08-12T08:15:13.173Z,37.59
2022-08-12T08:17:14.421Z,38.56
2022-08-12T08:19:15.571Z,38.37
2022-08-12T08:23:17.889Z,36.95
2022-08-12T08:25:20.511Z,37.16
2022-08-12T08:27:21.034Z,37.29
2022-08-12T08:29:22.065Z,37.01
2022-08-12T08:31:23.474Z,36.6
2022-08-12T08:35:25.253Z,35.85
2022-08-12T08:37:28.723Z,36.3
2022-08-12T08:39:27.706Z,36.58
2022-08-12T08:42:13.492Z,36.06
2022-08-12T08:43:30.399Z,36.04
2022-08-12T08:45:31.379Z,36.07
2022-08-12T08:47:32.466Z,35.71
2022-08-12T08:49:34.326Z,35.58
2022-08-12T08:51:35.299Z,36.53
2022-08-12T08:53:36.059Z,35.58
2022-08-12T08:56:01.518Z,35.41
2022-08-12T08:57:43.379Z,35.91
2022-08-12T08:59:40.030Z,34.59
2022-08-12T09:01:41.135Z,34.4
2022-08-12T09:05:10.510Z,35.2
2022-08-12T09:07:52.079Z,33.43
2022-08-12T09:10:03.082Z,32.29
2022-08-12T09:11:52.481Z,33.44
2022-08-12T09:14:10.231Z,34.27
2022-08-12T09:17:51.826Z,32.56
2022-08-12T09:19:58.276Z,33.15
2022-08-12T09:21:55.457Z,32.42
2022-08-12T09:23:58.203Z,32.28
2022-08-12T09:25:57.362Z,32.93
2022-08-12T09:28:04.382Z,32.05
2022-08-12T09:30:09.140Z,32.53
2022-08-12T09:34:25.038Z,31.61
2022-08-12T09:36:05.127Z,30.42
2022-08-12T09:38:04.383Z,31.35
2022-08-12T09:40:14.757Z,32.2
2022-08-12T09:42:10.193Z,31.35
2022-08-12T09:44:38.816Z,29.98
2022-08-12T09:46:20.700Z,29.91
2022-08-12T09:48:19.625Z,31.11
2022-08-12T09:50:20.221Z,30.75
2022-08-12T09:52:13.364Z,30.21
2022-08-12T09:54:31.261Z,29.83
2022-08-12T09:56:57.767Z,28.85
2022-08-12T09:58:46.332Z,29.32
2022-08-12T10:00:19.679Z,29.2
2022-08-12T10:02:43.578Z,29.09
2022-08-12T10:04:21.145Z,29.9
2022-08-12T10:06:27.448Z,29.73
2022-08-12T10:08:23.485Z,29.06
2022-08-12T10:10:25.488Z,29.8
2022-08-12T10:12:31.201Z,30.45
2022-08-12T10:16:28.412Z,28.95
2022-08-12T10:18:29.472Z,29.39
2022-08-12T10:20:30.710Z,30.03
2022-08-12T10:22:36.437Z,29.87
2022-08-12T10:24:32.725Z,29.23
2022-08-12T10:26:38.891Z,29.25
2022-08-12T10:28:35.151Z,29.09
2022-08-12T10:30:41.194Z,29.26
2022-08-12T10:32:43.442Z,29.24
2022-08-12T10:34:38.820Z,29.65
2022-08-12T10:36:40.931Z,30.15
2022-08-12T10:38:44.016Z,29.27
2022-08-12T10:40:43.120Z,29.28
2022-08-12T10:42:45.958Z,29.33
2022-08-12T10:44:46.732Z,28.56
2022-08-12T10:46:49.066Z,28.74
2022-08-12T10:48:58.012Z,29.35
2022-08-12T10:50:56.501Z,29.21
2022-08-12T10:52:51.587Z,28.59
2022-08-12T10:56:54.469Z,29.64
2022-08-12T10:58:56.080Z,29.52
2022-08-12T11:01:26.407Z,29.36
2022-08-12T11:04:21.006Z,29.02
2022-08-12T11:05:00.465Z,29.17
2022-08-12T11:07:03.953Z,29.77
2022-08-12T11:09:02.511Z,28.31
2022-08-12T11:11:07.685Z,27.7
2022-08-12T11:13:04.555Z,27.78
2022-08-12T11:15:14.649Z,28.19
2022-08-12T11:17:35.137Z,28.75
2022-08-12T11:19:09.252Z,28.24
2022-08-12T11:21:15.785Z,29.03
2022-08-12T11:23:26.191Z,28.38
2022-08-12T11:25:13.218Z,28.46
2022-08-12T11:29:22.270Z,28.6
2022-08-12T11:31:17.807Z,27.79
2022-08-12T11:33:24.287Z,28.49
2022-08-12T11:35:20.217Z,28.36
2022-08-12T11:37:26.220Z,28.48
2022-08-12T11:39:23.350Z,27.04
2022-08-12T11:41:28.340Z,26.52
2022-08-12T11:43:25.160Z,28.06
2022-08-12T11:45:26.132Z,28.57
2022-08-12T11:47:27.016Z,27.5
2022-08-12T11:49:30.944Z,27.97
2022-08-12T11:51:29.197Z,28.58
2022-08-12T11:58:03.892Z,28.15
2022-08-12T12:02:00.570Z,28.16
2022-08-12T12:03:40.306Z,28.31
2022-08-12T12:05:39.809Z,27.71
2022-08-12T12:08:39.149Z,27.07
2022-08-12T12:09:52.096Z,27.05
2022-08-12T12:11:48.798Z,26.68
2022-08-12T12:14:06.981Z,26.75
2022-08-12T12:15:43.996Z,27.15
2022-08-12T12:17:44.863Z,27.39
2022-08-12T12:19:46.625Z,26.65
2022-08-12T12:21:49.222Z,27.45
2022-08-12T12:23:48.946Z,26.44
2022-08-12T12:25:59.766Z,25.88
2022-08-12T12:30:14.695Z,25.79
2022-08-12T12:32:06.916Z,26.41
2022-08-12T12:33:57.671Z,25.83
2022-08-12T12:36:06.877Z,26.75
2022-08-12T12:39:59.237Z,26.3
2022-08-12T12:42:42.185Z,26.49
2022-08-12T12:44:04.308Z,26.98
2022-08-12T12:46:03.948Z,26.85
2022-08-12T12:48:04.884Z,26.99
2022-08-12T12:50:06.399Z,27.42
2022-08-12T12:52:19.217Z,27.85
2022-08-12T12:56:09.721Z,28.01
2022-08-12T12:58:10.885Z,26.08
2022-08-12T13:00:12.165Z,27
2022-08-12T13:02:13.522Z,25.54
2022-08-12T13:04:15.033Z,26.24
2022-08-12T13:06:15.975Z,25.63
2022-08-12T13:08:17.719Z,26.47
2022-08-12T13:10:18.979Z,25.27
2022-08-12T13:12:20.469Z,25.42
2022-08-12T13:14:28.511Z,25.98
2022-08-12T13:16:22.380Z,25.77
2022-08-12T13:18:24.551Z,26.51
2022-08-12T13:20:37.650Z,26.2
2022-08-12T13:22:26.977Z,25.86
2022-08-12T13:24:27.855Z,26.72
2022-08-12T13:26:28.713Z,25.66
2022-08-12T13:28:30.173Z,26.69
2022-08-12T13:30:30.999Z,24.98
2022-08-12T13:32:32.033Z,24.61
2022-08-12T13:34:35.455Z,24.84
2022-08-12T13:36:34.437Z,24.34
2022-08-12T13:38:35.672Z,25.31
2022-08-12T13:40:36.748Z,25.86
2022-08-12T13:42:38.308Z,25.64
2022-08-12T13:44:40.044Z,24.79
2022-08-12T13:46:41.604Z,26.44
2022-08-12T13:48:44.794Z,25.93
2022-08-12T13:49:54.248Z,26.28
2022-08-12T13:51:27.518Z,26.28
2022-08-12T13:53:29.560Z,25.79
2022-08-12T13:55:30.893Z,25.83
2022-08-12T13:57:31.609Z,26.22
2022-08-12T13:59:48.519Z,25.93
2022-08-12T14:01:33.671Z,26.14
2022-08-12T14:05:38.452Z,25.23
2022-08-12T14:07:46.035Z,24.11
2022-08-12T14:09:39.252Z,24.17
2022-08-12T14:11:40.214Z,24.21
2022-08-12T14:14:04.476Z,24.59
2022-08-12T14:15:42.778Z,24.26
2022-08-12T14:17:44.441Z,24.83
2022-08-12T14:19:50.035Z,25.19
2022-08-12T14:21:58.993Z,25.34
2022-08-12T14:24:01.721Z,26.58
2022-08-12T14:25:49.682Z,25.76
2022-08-12T14:28:02.924Z,26.2
2022-08-12T14:29:56.380Z,26.74
2022-08-12T14:31:54.143Z,26.43
2022-08-12T14:33:55.267Z,26.25
2022-08-12T14:35:56.501Z,26.26
2022-08-12T14:37:59.035Z,25.59
2022-08-12T14:39:58.782Z,25.97
2022-08-12T14:42:00.255Z,25.23
2022-08-12T14:44:05.042Z,25.02
2022-08-12T14:46:03.301Z,25.82
2022-08-12T14:48:04.399Z,23.84
2022-08-12T14:50:34.625Z,24.26
2022-08-12T14:52:38.709Z,25.3
2022-08-12T14:56:59.311Z,24.71
2022-08-12T14:58:12.420Z,24.16
2022-08-12T15:02:14.213Z,24.62
2022-08-12T15:04:15.550Z,25.42
2022-08-12T15:06:40.140Z,25.04
2022-08-12T15:08:22.426Z,26.32
2022-08-12T15:10:25.220Z,25.64
2022-08-12T15:12:24.535Z,25.16
2022-08-12T15:14:21.832Z,25.05
2022-08-12T15:16:23.354Z,24.86
2022-08-12T15:18:24.502Z,24.47
2022-08-12T15:20:32.123Z,25.18
2022-08-12T15:22:36.285Z,24.89
2022-08-12T15:24:28.413Z,25.04
2022-08-12T15:26:34.693Z,25.73
2022-08-12T15:28:32.351Z,25.64
2022-08-12T15:30:32.667Z,25.53
2022-08-12T15:32:34.198Z,24.42
2022-08-12T15:34:35.254Z,25.22
2022-08-12T15:36:36.673Z,25.16
2022-08-12T15:38:37.658Z,24.88
2022-08-12T15:40:38.603Z,24.44
2022-08-12T15:42:40.061Z,23.9
2022-08-12T15:44:43.003Z,24.19
2022-08-12T15:46:42.667Z,24.37
2022-08-12T15:48:43.495Z,24.27
2022-08-12T15:50:45.558Z,24.56
2022-08-12T15:52:46.341Z,24.85
2022-08-12T15:56:48.931Z,24.58
2022-08-12T15:58:50.499Z,24.97
2022-08-12T16:00:51.953Z,24.84
2022-08-12T16:02:53.437Z,25.57
2022-08-12T16:04:54.298Z,24.56
2022-08-12T16:07:05.774Z,25.25
2022-08-12T16:08:57.258Z,25.18
2022-08-12T16:10:58.890Z,25.57
2022-08-12T16:12:59.642Z,25.36
2022-08-12T16:15:00.414Z,24.77
2022-08-12T16:17:01.795Z,25.59
2022-08-12T16:19:09.046Z,25.68
2022-08-12T16:21:04.841Z,25.43
2022-08-12T16:23:26.164Z,25.54
2022-08-12T16:25:06.805Z,25.93
2022-08-12T16:27:07.639Z,25.74
2022-08-12T16:29:14.835Z,25.59
2022-08-12T16:31:12.406Z,25.44
2022-08-12T16:33:11.778Z,25.4
2022-08-12T16:35:16.130Z,25.52
2022-08-12T16:37:14.482Z,26.16
2022-08-12T16:39:15.604Z,25.98
2022-08-12T16:41:16.390Z,26.16
2022-08-12T16:45:18.920Z,26.14
2022-08-12T16:47:20.220Z,26.62
2022-08-12T16:49:21.254Z,27.28
2022-08-12T16:51:22.391Z,26.85
2022-08-12T16:53:30.542Z,27
2022-08-12T16:55:25.330Z,26.84
2022-08-12T16:57:32.381Z,27.19
2022-08-12T16:59:30.712Z,26.95
2022-08-12T17:01:28.706Z,26.8
2022-08-12T17:03:30.475Z,27.22
2022-08-12T17:05:31.108Z,27.05
2022-08-12T17:07:31.322Z,27.4
2022-08-12T17:09:34.259Z,28.47
2022-08-12T17:11:34.292Z,29.02
2022-08-12T17:13:35.752Z,29.17
2022-08-12T17:15:51.611Z,29.42
2022-08-12T17:17:39.059Z,29.84
2022-08-12T17:20:02.672Z,29.81
2022-08-12T17:21:52.086Z,29.89
2022-08-12T17:23:48.213Z,30.03
2022-08-12T17:27:44.848Z,30.37
2022-08-12T17:30:01.727Z,30.35
2022-08-12T17:31:53.203Z,30.42
2022-08-12T17:33:49.671Z,30.43
2022-08-12T17:37:54.608Z,30.69
2022-08-12T17:40:07.868Z,30.9
2022-08-12T17:41:56.091Z,30.96
2022-08-12T17:43:57.971Z,30.47
2022-08-12T17:45:56.482Z,30.96
2022-08-12T17:48:01.996Z,31.16
2022-08-12T17:52:02.119Z,31.03
2022-08-12T17:54:06.578Z,31.34
2022-08-12T17:56:02.512Z,31.03
2022-08-12T17:58:03.735Z,31.05
2022-08-12T18:00:05.242Z,31.5
2022-08-12T18:02:06.168Z,31.84
2022-08-12T18:04:21.064Z,31.74
2022-08-12T18:06:14.390Z,31.74
2022-08-12T18:08:10.271Z,31.4
2022-08-12T18:10:10.826Z,31.7
2022-08-12T18:12:11.857Z,31.71
2022-08-12T18:14:13.018Z,31.78
2022-08-12T18:16:14.721Z,31.89
2022-08-12T18:18:15.856Z,32.3
2022-08-12T18:20:16.720Z,32.28
2022-08-12T18:22:21.844Z,32.45
2022-08-12T18:24:22.129Z,32.58
2022-08-12T18:26:21.618Z,32.74
2022-08-12T18:28:27.451Z,33.26
2022-08-12T18:30:29.124Z,33.51
2022-08-12T18:32:34.684Z,33.65
2022-08-12T18:36:28.249Z,34.32
2022-08-12T18:38:29.319Z,34.94
2022-08-12T18:40:30.954Z,35.52
2022-08-12T18:42:32.171Z,35.72
2022-08-12T18:44:33.280Z,35.88
2022-08-12T18:46:34.993Z,36.42
2022-08-12T18:48:36.356Z,36.46
2022-08-12T18:50:49.743Z,36.31
2022-08-12T18:52:39.114Z,36.45
2022-08-12T18:54:41.297Z,36.06
2022-08-12T18:56:41.777Z,36.81
2022-08-12T18:58:42.844Z,36.94
2022-08-12T19:00:44.354Z,37.04
2022-08-12T19:02:45.476Z,36.57
2022-08-12T19:04:47.846Z,36.27
2022-08-12T19:06:47.937Z,36.59
2022-08-12T19:08:49.749Z,37.29
2022-08-12T19:10:51.199Z,37.88
2022-08-12T19:12:55.693Z,38.25
2022-08-12T19:14:58.334Z,38.98
2022-08-12T19:16:54.638Z,39.16
2022-08-12T19:18:56.026Z,39.41
2022-08-12T19:20:57.435Z,39.63
2022-08-12T19:22:59.947Z,40.24
2022-08-12T19:25:00.373Z,40.16
2022-08-12T19:27:01.853Z,40.29
2022-08-12T19:29:03.366Z,40.69
2022-08-12T19:31:05.039Z,40.2
2022-08-12T19:33:06.331Z,40.27
2022-08-12T19:37:08.831Z,40.52
2022-08-12T19:39:15.063Z,40.63
2022-08-12T19:41:11.524Z,40.77
2022-08-12T19:43:13.606Z,40.13
2022-08-12T19:45:14.839Z,40.66
2022-08-12T19:47:16.427Z,40.7
2022-08-12T19:49:17.055Z,40.87
2022-08-12T19:51:22.798Z,40.72
2022-08-12T19:53:19.880Z,39.74
2022-08-12T19:55:21.856Z,39.46
2022-08-12T19:59:24.497Z,40.92
2022-08-12T20:01:25.513Z,40.45
2022-08-12T20:03:37.768Z,41.36
2022-08-12T20:06:04.290Z,42.12
2022-08-12T20:07:34.373Z,42.56
2022-08-12T20:09:38.962Z,43.1
2022-08-12T20:12:08.900Z,43.48
2022-08-12T20:13:37.352Z,43.5
2022-08-12T20:17:41.957Z,44.13
2022-08-12T20:19:52.637Z,44.55
2022-08-12T20:21:40.033Z,44.7
2022-08-12T20:23:50.567Z,44.96
2022-08-12T20:25:52.089Z,45.52
2022-08-12T20:28:02.349Z,45.62
2022-08-12T20:29:45.719Z,45.5
2022-08-12T20:31:46.027Z,45.58
2022-08-12T20:33:51.088Z,45.98
2022-08-12T20:34:31.576Z,46.08
2022-08-12T20:36:40.511Z,46.26
2022-08-12T20:38:34.468Z,46.36
2022-08-12T20:40:35.774Z,45.94
2022-08-12T20:42:37.229Z,45.07
2022-08-12T20:44:40.097Z,44.96
2022-08-12T20:46:40.033Z,44.99
2022-08-12T20:48:40.871Z,45.19
2022-08-12T20:50:41.854Z,43.19
2022-08-12T20:52:45.174Z,41.57
2022-08-12T20:54:45.435Z,42.58
2022-08-12T20:56:46.626Z,42.87
2022-08-12T20:58:48.025Z,43.15
2022-08-12T21:00:49.171Z,44.02
2022-08-12T21:02:50.824Z,44.84
2022-08-12T21:04:51.946Z,45.24
2022-08-12T21:06:53.387Z,45.37
2022-08-12T21:08:55.087Z,45.59
2022-08-12T21:10:59.058Z,45.12
2022-08-12T21:12:58.522Z,45.51
2022-08-12T21:15:03.457Z,45.78
2022-08-12T21:17:01.381Z,46.07
2022-08-12T21:19:02.940Z,46.4
2022-08-12T21:21:03.969Z,46.71
2022-08-12T21:23:06.250Z,46.69
2022-08-12T21:25:14.138Z,47.22
2022-08-12T21:27:08.779Z,47.39
2022-08-12T21:29:10.600Z,47.58
2022-08-12T21:32:38.408Z,48.01
2022-08-12T21:33:14.677Z,48.47
2022-08-12T21:37:26.653Z,48.71
2022-08-12T21:39:17.700Z,49.4
2022-08-12T21:41:17.772Z,49.34
2022-08-12T21:43:19.659Z,49.17
2022-08-12T21:45:44.813Z,49.38
2022-08-12T21:47:22.412Z,48.92
2022-08-12T21:49:53.520Z,48.96
2022-08-12T21:51:24.101Z,49.04
2022-08-12T21:53:31.593Z,49.41
2022-08-12T21:55:27.245Z,49.35
2022-08-12T21:57:29.100Z,49.38
2022-08-12T21:59:31.052Z,49.36
2022-08-12T22:01:31.119Z,49.53
2022-08-12T22:04:02.553Z,49
2022-08-12T22:05:33.554Z,50.54
2022-08-12T22:07:43.146Z,51.11
2022-08-12T22:09:42.974Z,50.4
2022-08-12T22:11:41.400Z,50.05
2022-08-12T22:14:01.933Z,50.98
2022-08-12T22:15:41.638Z,50.14
2022-08-12T22:17:49.690Z,50.8
2022-08-12T22:19:44.141Z,51.24
2022-08-12T22:21:48.428Z,52.02
2022-08-12T22:25:47.450Z,52.73
2022-08-12T22:27:48.712Z,53.29
2022-08-12T22:29:49.659Z,53.7
2022-08-12T22:31:51.179Z,53.74
2022-08-12T22:35:56.494Z,54.09
2022-08-12T22:37:55.698Z,54.03
2022-08-12T22:39:56.912Z,54.28
2022-08-12T22:41:57.940Z,54.28
2022-08-12T22:43:59.967Z,54.11
2022-08-12T22:46:00.364Z,54.27
2022-08-12T22:48:01.824Z,54.26
2022-08-12T22:50:03.581Z,54.63
2022-08-12T22:52:06.708Z,54.47
2022-08-12T22:54:06.285Z,54.27
2022-08-12T22:56:07.601Z,54.28
2022-08-12T22:58:08.671Z,54.51
2022-08-12T23:00:13.136Z,54.44
2022-08-12T23:02:11.488Z,54.29
2022-08-12T23:04:12.786Z,54.47
2022-08-12T23:06:14.232Z,54.85
2022-08-12T23:08:17.693Z,55.01
2022-08-12T23:10:17.695Z,55.06
2022-08-12T23:12:22.569Z,55.26
2022-08-12T23:14:20.099Z,55.4
2022-08-12T23:16:28.692Z,55.55
2022-08-12T23:18:22.765Z,55.76
2022-08-12T23:20:26.837Z,55.82
2022-08-12T23:22:35.603Z,55.46
2022-08-12T23:24:26.584Z,55.61
2022-08-12T23:26:27.838Z,55.84
2022-08-12T23:28:29.671Z,56.41
2022-08-12T23:30:31.393Z,57.22
2022-08-12T23:32:35.513Z,56.82
2022-08-12T23:34:33.273Z,56.58
2022-08-12T23:36:39.525Z,56.62
2022-08-12T23:38:35.719Z,56.96
2022-08-12T23:40:37.515Z,57.16
2022-08-12T23:42:38.813Z,59.1
2022-08-12T23:44:39.980Z,59.24
2022-08-12T23:46:41.173Z,59.43
2022-08-12T23:48:47.682Z,59.02
2022-08-12T23:50:44.577Z,58.48
2022-08-12T23:52:45.563Z,58.34
2022-08-12T23:54:47.072Z,58.5
2022-08-12T23:56:48.751Z,58.36
2022-08-12T23:58:50.374Z,59.37
